Time;durP1;ratioP1;P1;durP2;ratioP2;P2;SDS_P1;SDS_P2;PMS_P1;PMS_P2;Temp;Humidity;BMP_temperature;BMP_pressure;BME280_temperature;BME280_humidity;BME280_pressure;Samples;Min_cycle;Max_cycle;Signal;HPM_P1;HPM_P2
2022/06/29 00:01:56;;;;;;;6.90;3.45;;;15.50;99.90;;;;;;5097804;28;20066;-67
2022/06/29 00:04:21;;;;;;;4.68;3.20;;;15.50;99.90;;;;;;5113981;28;20065;-67
2022/06/29 00:06:48;;;;;;;10.32;3.03;;;15.40;99.90;;;;;;5097731;28;20495;-67
2022/06/29 00:09:13;;;;;;;7.10;3.28;;;15.40;99.90;;;;;;5097727;28;20039;-69
2022/06/29 00:11:40;;;;;;;8.55;3.10;;;15.40;99.90;;;;;;5097606;28;20557;-67
2022/06/29 00:14:05;;;;;;;5.65;3.15;;;15.30;99.90;;;;;;5089256;28;20483;-68
2022/06/29 00:16:31;;;;;;;6.53;2.90;;;15.30;99.90;;;;;;5097515;28;20035;-68
2022/06/29 00:18:57;;;;;;;10.65;3.60;;;15.20;99.90;;;;;;5097595;28;20455;-68
2022/06/29 00:21:23;;;;;;;6.22;3.25;;;15.20;99.90;;;;;;5097683;28;20039;-67
2022/06/29 00:23:49;;;;;;;8.45;3.60;;;15.20;99.90;;;;;;5115844;28;20049;-67
2022/06/29 00:26:15;;;;;;;9.43;3.85;;;15.10;99.90;;;;;;5097570;28;20506;-67
2022/06/29 00:28:40;;;;;;;5.85;3.55;;;15.00;99.90;;;;;;5097337;28;20039;-67
2022/06/29 00:31:06;;;;;;;6.53;2.97;;;15.00;99.90;;;;;;5097337;28;20043;-67
2022/06/29 00:33:32;;;;;;;8.82;2.90;;;14.90;99.90;;;;;;5113495;28;20484;-66
2022/06/29 00:35:58;;;;;;;8.70;2.80;;;14.90;99.90;;;;;;5097117;28;20047;-67
2022/06/29 00:38:24;;;;;;;5.40;2.65;;;14.90;99.90;;;;;;5097137;28;20194;-67
2022/06/29 00:40:50;;;;;;;7.07;3.20;;;14.80;99.90;;;;;;5097172;28;20071;-67
2022/06/29 00:43:16;;;;;;;7.03;3.00;;;14.80;99.90;;;;;;5115326;28;20032;-69
2022/06/29 00:45:41;;;;;;;4.68;2.80;;;14.80;99.90;;;;;;5114977;28;20692;-67
2022/06/29 00:48:08;;;;;;;6.43;2.80;;;14.80;99.90;;;;;;5114925;28;20052;-68
2022/06/29 00:50:37;;;;;;;4.88;2.58;;;14.80;99.90;;;;;;5097057;28;20040;-67
2022/06/29 00:53:04;;;;;;;6.20;3.13;;;14.80;99.90;;;;;;5097045;28;20042;-67
2022/06/29 00:55:33;;;;;;;5.07;3.03;;;14.80;99.90;;;;;;5096685;28;20122;-68
2022/06/29 00:58:05;;;;;;;5.38;2.95;;;14.80;99.90;;;;;;5115038;28;20105;-67
2022/06/29 01:00:32;;;;;;;7.38;2.60;;;14.80;99.90;;;;;;5096533;28;20139;-67
2022/06/29 01:02:59;;;;;;;4.80;2.95;;;14.80;99.90;;;;;;5114773;28;20464;-67
2022/06/29 01:05:26;;;;;;;14.50;3.90;;;14.80;99.90;;;;;;5094420;28;20047;-67
2022/06/29 01:07:52;;;;;;;6.13;2.90;;;14.80;99.90;;;;;;5114833;28;20043;-68
2022/06/29 01:10:19;;;;;;;4.57;2.97;;;14.80;99.90;;;;;;5096421;28;20076;-67
2022/06/29 01:12:49;;;;;;;4.95;3.20;;;14.80;99.90;;;;;;5114683;28;20032;-67
2022/06/29 01:15:15;;;;;;;3.38;2.78;;;14.70;99.90;;;;;;5096414;28;20035;-67
2022/06/29 01:17:41;;;;;;;7.32;2.72;;;14.70;99.90;;;;;;5096656;28;20134;-67
2022/06/29 01:20:08;;;;;;;5.55;3.53;;;14.70;99.90;;;;;;5096180;28;20046;-67
2022/06/29 01:22:34;;;;;;;6.43;2.47;;;14.80;99.90;;;;;;5096286;28;20044;-67
2022/06/29 01:25:00;;;;;;;7.65;2.70;;;14.80;99.90;;;;;;5114357;28;20034;-67
2022/06/29 01:27:26;;;;;;;7.40;3.13;;;14.80;99.90;;;;;;5079180;28;20146;-67
2022/06/29 01:29:52;;;;;;;3.90;2.58;;;14.90;99.90;;;;;;5078955;28;20040;-67
2022/06/29 01:32:20;;;;;;;5.32;3.10;;;14.90;99.90;;;;;;5114388;28;20044;-67
2022/06/29 01:34:46;;;;;;;7.03;2.90;;;14.90;99.90;;;;;;5077274;28;20051;-67
2022/06/29 01:37:12;;;;;;;3.88;2.83;;;15.00;99.90;;;;;;5096280;28;20456;-67
2022/06/29 01:39:39;;;;;;;4.13;2.63;;;15.00;99.90;;;;;;5096150;28;20499;-67
2022/06/29 01:42:05;;;;;;;7.22;2.85;;;15.00;99.90;;;;;;5079213;28;20047;-68
2022/06/29 01:44:32;;;;;;;5.50;2.72;;;15.10;99.90;;;;;;5114028;28;20051;-68
2022/06/29 01:46:57;;;;;;;4.43;2.63;;;15.10;99.90;;;;;;5095725;28;20134;-69
2022/06/29 01:49:23;;;;;;;5.60;2.72;;;15.10;99.90;;;;;;5113830;28;20180;-68
2022/06/29 01:51:49;;;;;;;5.70;3.33;;;15.10;99.90;;;;;;5078455;28;20122;-67
2022/06/29 01:54:16;;;;;;;5.00;2.70;;;15.10;99.90;;;;;;5114064;28;20043;-67
2022/06/29 01:56:41;;;;;;;6.05;3.22;;;15.20;99.90;;;;;;5095573;28;20039;-68
2022/06/29 01:59:07;;;;;;;7.53;2.53;;;15.20;99.90;;;;;;5114069;28;20042;-67
2022/06/29 02:01:33;;;;;;;6.25;2.65;;;15.20;99.90;;;;;;5095413;28;20491;-68
2022/06/29 02:03:59;;;;;;;10.52;2.90;;;15.20;99.90;;;;;;5076705;28;20040;-67
2022/06/29 02:06:25;;;;;;;7.18;3.08;;;15.20;99.90;;;;;;5095514;28;20438;-66
2022/06/29 02:08:52;;;;;;;6.32;2.90;;;15.20;99.90;;;;;;5095558;28;20036;-67
2022/06/29 02:11:18;;;;;;;5.60;3.10;;;15.20;99.90;;;;;;5113503;28;20047;-67
2022/06/29 02:13:43;;;;;;;5.20;2.78;;;15.20;99.90;;;;;;5113596;28;20044;-67
2022/06/29 02:16:10;;;;;;;5.60;2.70;;;15.20;99.90;;;;;;5113715;28;20043;-67
2022/06/29 02:18:35;;;;;;;7.13;3.20;;;15.20;99.90;;;;;;5095618;28;20048;-67
2022/06/29 02:21:01;;;;;;;6.97;2.95;;;15.30;99.90;;;;;;5113405;28;20040;-66
2022/06/29 02:23:27;;;;;;;6.95;3.00;;;15.30;99.90;;;;;;5095294;28;20130;-68
2022/06/29 02:25:54;;;;;;;6.10;3.42;;;15.30;99.90;;;;;;5095016;28;20040;-67
2022/06/29 02:28:20;;;;;;;4.80;3.10;;;15.20;99.90;;;;;;5113549;28;20055;-68
2022/06/29 02:36:14;;;;;;;5.45;3.10;;;15.20;99.90;;;;;;5094850;28;20535;-68
2022/06/29 02:38:40;;;;;;;5.32;2.78;;;15.20;99.90;;;;;;5113381;28;20086;-67
2022/06/29 02:41:06;;;;;;;7.32;2.90;;;15.20;99.90;;;;;;5113424;28;20043;-67
2022/06/29 02:43:31;;;;;;;4.88;3.20;;;15.20;99.90;;;;;;5095321;28;20102;-67
2022/06/29 02:45:57;;;;;;;4.53;3.20;;;15.20;99.90;;;;;;5113274;28;20503;-67
2022/06/29 02:48:23;;;;;;;5.85;3.33;;;15.20;99.90;;;;;;5113017;28;20108;-68
2022/06/29 02:50:49;;;;;;;6.20;3.05;;;15.20;99.90;;;;;;5113154;28;20044;-67
2022/06/29 02:53:15;;;;;;;3.85;3.13;;;15.20;99.90;;;;;;5095245;28;20420;-68
2022/06/29 02:55:41;;;;;;;4.00;2.60;;;15.20;99.90;;;;;;5094862;28;20118;-67
2022/06/29 02:58:06;;;;;;;5.95;3.40;;;15.20;99.90;;;;;;5094838;28;20044;-68
2022/06/29 03:00:32;;;;;;;5.25;3.83;;;15.20;99.90;;;;;;5095115;28;20096;-68
2022/06/29 03:02:58;;;;;;;9.10;3.63;;;15.30;99.90;;;;;;5096544;28;20142;-68
2022/06/29 03:05:24;;;;;;;5.30;3.42;;;15.30;99.90;;;;;;5115020;28;20044;-67
2022/06/29 03:07:50;;;;;;;5.15;3.10;;;15.30;99.90;;;;;;5117189;28;20655;-68
2022/06/29 03:10:15;;;;;;;6.20;2.70;;;15.30;99.90;;;;;;5117360;28;20043;-67
2022/06/29 03:12:41;;;;;;;5.55;3.00;;;15.30;99.90;;;;;;5098721;28;20075;-67
2022/06/29 03:15:07;;;;;;;6.05;3.08;;;15.30;99.90;;;;;;5081794;28;20039;-68
2022/06/29 03:17:33;;;;;;;4.55;3.10;;;15.30;99.90;;;;;;5098859;28;20040;-68
2022/06/29 03:20:01;;;;;;;5.47;3.10;;;15.30;99.90;;;;;;5116820;28;20433;-68
2022/06/29 03:22:27;;;;;;;4.68;3.55;;;15.40;99.90;;;;;;5098538;28;20081;-68
2022/06/29 03:24:53;;;;;;;5.00;3.08;;;15.40;99.90;;;;;;5117069;28;20075;-68
2022/06/29 03:27:19;;;;;;;4.40;3.65;;;15.40;99.90;;;;;;5081478;28;20564;-68
2022/06/29 03:29:44;;;;;;;4.53;3.22;;;15.40;99.90;;;;;;5098450;28;20048;-68
2022/06/29 03:32:10;;;;;;;3.90;3.53;;;15.40;99.90;;;;;;5081368;28;20123;-69
2022/06/29 03:34:36;;;;;;;6.63;4.10;;;15.40;99.90;;;;;;5096142;28;20042;-68
2022/06/29 03:37:02;;;;;;;6.80;3.90;;;15.40;99.90;;;;;;5098206;28;20039;-68
2022/06/29 03:39:28;;;;;;;5.97;3.72;;;15.40;99.90;;;;;;5098353;28;20039;-69
2022/06/29 03:41:53;;;;;;;5.15;3.70;;;15.30;99.90;;;;;;5098426;28;20044;-69
2022/06/29 03:44:19;;;;;;;6.85;3.80;;;15.30;99.90;;;;;;5098424;28;20357;-68
2022/06/29 03:46:45;;;;;;;5.68;3.55;;;15.30;99.90;;;;;;5081137;28;20054;-68
2022/06/29 03:49:11;;;;;;;6.75;3.85;;;15.30;99.90;;;;;;5097777;28;20059;-68
2022/06/29 03:51:37;;;;;;;4.88;3.80;;;15.30;99.90;;;;;;5098012;28;20043;-68
2022/06/29 03:54:03;;;;;;;5.85;4.03;;;15.30;99.90;;;;;;5098160;28;20047;-69
2022/06/29 03:56:28;;;;;;;4.93;3.78;;;15.30;99.90;;;;;;5116319;28;20471;-68
2022/06/29 03:58:54;;;;;;;5.18;3.63;;;15.20;99.90;;;;;;5116099;28;20480;-68
2022/06/29 04:01:20;;;;;;;3.70;3.33;;;15.20;99.90;;;;;;5116077;28;20044;-68
2022/06/29 04:03:46;;;;;;;4.78;3.97;;;15.20;99.90;;;;;;5113768;28;20140;-68
2022/06/29 04:06:13;;;;;;;11.60;4.88;;;15.20;99.90;;;;;;5115907;28;20081;-68
2022/06/29 04:08:39;;;;;;;4.45;3.50;;;15.20;99.90;;;;;;5116062;28;20044;-68
2022/06/29 04:11:48;;;;;;;5.57;3.80;;;15.20;99.90;;;;;;5097942;28;20044;-68
2022/06/29 04:13:52;;;;;;;5.63;3.85;;;15.20;99.90;;;;;;5097399;28;20035;-69
2022/06/29 04:16:18;;;;;;;5.32;3.60;;;15.20;99.90;;;;;;5115818;28;20110;-69
2022/06/29 04:18:44;;;;;;;7.07;3.90;;;15.20;99.90;;;;;;5097850;28;20134;-68
2022/06/29 04:21:10;;;;;;;5.65;4.10;;;15.30;99.90;;;;;;5115912;28;20104;-68
2022/06/29 04:23:35;;;;;;;4.70;3.75;;;15.30;99.90;;;;;;5097247;28;20047;-68
2022/06/29 04:26:01;;;;;;;7.82;4.05;;;15.20;99.90;;;;;;5097499;28;20122;-68
2022/06/29 04:28:27;;;;;;;4.45;4.05;;;15.20;99.90;;;;;;5096096;28;20118;-69
2022/06/29 04:30:53;;;;;;;5.63;3.92;;;15.20;99.90;;;;;;5114577;28;20081;-68
2022/06/29 04:33:19;;;;;;;6.72;3.88;;;15.20;99.90;;;;;;5096178;28;20488;-68
2022/06/29 04:35:44;;;;;;;5.57;3.58;;;15.30;99.90;;;;;;5094066;28;20149;-68
2022/06/29 04:38:10;;;;;;;7.00;4.13;;;15.30;99.90;;;;;;5096067;28;20150;-69
2022/06/29 04:40:36;;;;;;;3.97;3.28;;;15.30;99.90;;;;;;5114494;28;20035;-68
2022/06/29 04:43:02;;;;;;;6.13;4.20;;;15.30;99.90;;;;;;5114326;28;20044;-68
2022/06/29 04:48:12;;;;;;;4.13;3.22;;;15.50;99.90;;;;;;5114147;28;20055;-69
2022/06/29 04:50:38;;;;;;;4.90;3.75;;;15.60;99.90;;;;;;5095911;28;20415;-69
2022/06/29 04:53:04;;;;;;;5.20;3.60;;;15.70;99.90;;;;;;5095809;28;20047;-68
2022/06/29 04:55:30;;;;;;;6.10;3.80;;;15.70;99.90;;;;;;5114231;28;20050;-69
2022/06/29 04:57:56;;;;;;;5.40;3.40;;;15.80;99.90;;;;;;5078784;28;20047;-69
2022/06/29 05:00:22;;;;;;;6.88;4.20;;;15.80;99.90;;;;;;5095993;28;20401;-68
2022/06/29 05:02:48;;;;;;;5.38;3.70;;;15.90;99.90;;;;;;5095602;28;20096;-69
2022/06/29 05:05:13;;;;;;;5.72;3.83;;;15.90;99.90;;;;;;5093515;28;20039;-69
2022/06/29 05:07:39;;;;;;;7.50;3.85;;;16.00;99.90;;;;;;5095436;28;20493;-69
2022/06/29 05:10:06;;;;;;;6.00;3.80;;;16.00;99.90;;;;;;5113697;28;20059;-69
2022/06/29 05:12:31;;;;;;;4.80;3.60;;;16.20;99.90;;;;;;5078630;28;20035;-69
2022/06/29 05:14:57;;;;;;;5.68;3.90;;;16.30;99.90;;;;;;5078609;28;20046;-69
2022/06/29 05:17:23;;;;;;;5.35;3.47;;;16.30;99.90;;;;;;5095570;28;20039;-69
2022/06/29 05:19:49;;;;;;;5.07;3.67;;;16.40;99.90;;;;;;5095496;28;20043;-69
2022/06/29 05:22:15;;;;;;;6.22;3.88;;;16.40;99.90;;;;;;5113432;28;20054;-68
2022/06/29 05:24:40;;;;;;;4.75;3.80;;;16.50;99.90;;;;;;5095040;28;20039;-69
2022/06/29 05:27:06;;;;;;;6.30;3.97;;;16.60;99.90;;;;;;5094895;28;20043;-69
2022/06/29 05:29:33;;;;;;;5.55;3.90;;;16.70;99.90;;;;;;5078175;28;20499;-69
2022/06/29 05:31:59;;;;;;;5.70;3.65;;;16.80;99.90;;;;;;5095251;28;20107;-70
2022/06/29 05:34:24;;;;;;;6.63;3.65;;;16.80;99.90;;;;;;5092559;28;20061;-70
2022/06/29 05:36:50;;;;;;;4.82;3.40;;;16.90;99.90;;;;;;5113225;28;20043;-69
2022/06/29 05:39:16;;;;;;;9.18;3.53;;;17.00;99.90;;;;;;5094868;28;20043;-70
2022/06/29 05:41:42;;;;;;;5.75;3.85;;;17.10;99.90;;;;;;5113222;28;20028;-69
2022/06/29 05:44:08;;;;;;;6.55;3.97;;;17.20;99.90;;;;;;5077921;28;20455;-69
2022/06/29 05:46:34;;;;;;;5.28;3.47;;;17.30;99.90;;;;;;5113253;28;20046;-69
2022/06/29 05:48:59;;;;;;;6.20;3.75;;;17.40;99.90;;;;;;5094583;28;20054;-70
2022/06/29 05:51:25;;;;;;;3.90;3.50;;;17.50;99.90;;;;;;5094736;28;20051;-70
2022/06/29 05:53:51;;;;;;;4.82;3.10;;;17.60;99.90;;;;;;5095010;28;20031;-69
2022/06/29 05:56:17;;;;;;;4.30;3.38;;;17.70;99.90;;;;;;5094628;28;20392;-70
2022/06/29 05:58:43;;;;;;;5.35;3.55;;;17.80;99.90;;;;;;5094455;28;20039;-69
2022/06/29 06:01:09;;;;;;;3.70;3.08;;;17.90;99.90;;;;;;5112751;28;20043;-70
2022/06/29 06:03:38;;;;;;;5.40;3.42;;;18.10;99.90;;;;;;5092198;28;20049;-68
2022/06/29 06:06:04;;;;;;;5.95;3.38;;;18.20;99.90;;;;;;5094455;28;20043;-68
2022/06/29 06:08:30;;;;;;;6.03;3.50;;;18.30;99.90;;;;;;5112608;28;20055;-68
2022/06/29 06:10:56;;;;;;;4.82;3.13;;;18.40;99.90;;;;;;5094694;28;20047;-68
2022/06/29 06:13:22;;;;;;;5.22;2.80;;;18.60;99.90;;;;;;5094298;28;20474;-70
2022/06/29 06:15:48;;;;;;;3.83;3.08;;;18.70;99.90;;;;;;5112533;28;20108;-69
2022/06/29 06:18:15;;;;;;;6.68;2.90;;;18.80;99.90;;;;;;5112625;28;20050;-69
2022/06/29 06:20:41;;;;;;;6.22;3.15;;;19.00;99.90;;;;;;5094438;28;20495;-71
2022/06/29 06:23:06;;;;;;;6.53;3.33;;;19.20;99.90;;;;;;5077616;28;20055;-70
2022/06/29 06:25:33;;;;;;;3.13;2.72;;;19.30;99.90;;;;;;5077598;28;20040;-70
2022/06/29 06:28:00;;;;;;;4.05;2.85;;;19.50;99.90;;;;;;5077448;28;20404;-69
2022/06/29 06:30:26;;;;;;;4.78;3.00;;;19.70;99.90;;;;;;5094485;28;20047;-68
2022/06/29 06:32:53;;;;;;;4.35;2.50;;;19.80;99.90;;;;;;5077861;28;20032;-68
2022/06/29 06:35:19;;;;;;;4.88;2.80;;;20.00;99.90;;;;;;5091752;28;20506;-73
2022/06/29 06:37:46;;;;;;;3.35;2.20;;;20.20;99.90;;;;;;5112345;28;20039;-68
2022/06/29 06:42:57;;;;;;;3.90;2.47;;;20.70;99.90;;;;;;5094008;28;20044;-72
2022/06/29 06:45:23;;;;;;;3.05;1.92;;;20.90;99.90;;;;;;5094207;28;20043;-70
2022/06/29 06:47:49;;;;;;;6.03;2.78;;;21.10;99.90;;;;;;5112186;28;20055;-69
2022/06/29 06:50:15;;;;;;;4.53;2.05;;;21.30;99.90;;;;;;5112122;28;20055;-70
2022/06/29 06:52:41;;;;;;;5.35;1.90;;;21.40;99.90;;;;;;5094191;28;20043;-69
2022/06/29 06:55:08;;;;;;;3.78;2.00;;;21.50;99.90;;;;;;5093848;28;20036;-68
2022/06/29 06:57:33;;;;;;;4.28;2.00;;;21.60;99.90;;;;;;5093919;28;20039;-70
2022/06/29 06:59:59;;;;;;;7.15;2.10;;;21.70;99.90;;;;;;5111690;28;20100;-69
2022/06/29 07:02:25;;;;;;;3.70;1.83;;;21.90;99.90;;;;;;5112107;28;20051;-68
2022/06/29 07:04:51;;;;;;;4.40;1.75;;;22.10;99.90;;;;;;5091583;28;20035;-68
2022/06/29 07:07:17;;;;;;;4.40;1.90;;;22.20;99.90;;;;;;5093638;28;20044;-69
2022/06/29 07:09:43;;;;;;;5.40;1.80;;;22.30;99.90;;;;;;5093761;28;20123;-67
2022/06/29 07:12:08;;;;;;;4.05;1.85;;;22.40;99.90;;;;;;5077189;28;20736;-70
2022/06/29 07:14:34;;;;;;;6.32;2.15;;;22.50;99.90;;;;;;5093964;28;20511;-69
2022/06/29 07:17:00;;;;;;;4.82;1.85;;;22.60;99.90;;;;;;5089262;28;20043;-70
2022/06/29 07:19:26;;;;;;;3.92;1.80;;;22.80;99.90;;;;;;5094701;28;20092;-68
2022/06/29 07:21:52;;;;;;;2.45;1.70;;;22.90;99.90;;;;;;5112892;28;20032;-67
2022/06/29 07:24:18;;;;;;;2.33;1.55;;;23.00;99.90;;;;;;5094794;28;20079;-69
2022/06/29 07:26:44;;;;;;;3.42;1.45;;;23.20;99.90;;;;;;5094679;28;20124;-71
2022/06/29 07:29:10;;;;;;;5.20;1.70;;;23.20;99.90;;;;;;5112804;28;20115;-72
2022/06/29 07:31:36;;;;;;;3.03;1.63;;;23.30;99.90;;;;;;5112689;28;20036;-69
2022/06/29 07:34:01;;;;;;;4.97;1.65;;;23.50;99.90;;;;;;5092189;28;20032;-70
2022/06/29 07:36:29;;;;;;;4.72;1.67;;;23.60;99.90;;;;;;5077218;28;20091;-68
2022/06/29 07:38:56;;;;;;;3.45;1.48;;;23.80;99.90;;;;;;5111833;28;20071;-69
2022/06/29 07:41:22;;;;;;;2.72;1.40;;;24.00;99.90;;;;;;5111090;28;20121;-70
2022/06/29 07:43:48;;;;;;;5.05;1.63;;;24.00;99.90;;;;;;5111782;28;20082;-76
2022/06/29 07:46:14;;;;;;;4.78;1.80;;;24.00;99.90;;;;;;5094254;28;20069;-70
2022/06/29 07:48:40;;;;;;;3.90;1.83;;;24.10;99.90;;;;;;5092724;28;20048;-68
2022/06/29 07:51:06;;;;;;;3.38;1.73;;;24.20;99.90;;;;;;5115420;28;20498;-70
2022/06/29 07:53:31;;;;;;;3.55;1.70;;;24.30;99.80;;;;;;5115513;28;20040;-71
2022/06/29 07:55:58;;;;;;;4.30;1.70;;;24.40;99.90;;;;;;5115044;28;20153;-70
2022/06/29 07:58:24;;;;;;;3.67;1.58;;;24.50;99.90;;;;;;5115800;28;20507;-68
2022/06/29 08:00:50;;;;;;;3.35;1.42;;;24.70;99.90;;;;;;5115462;28;20107;-70
2022/06/29 08:03:16;;;;;;;4.32;1.55;;;24.70;99.50;;;;;;5097630;28;20130;-71
2022/06/29 08:05:41;;;;;;;4.95;1.58;;;24.80;99.80;;;;;;5113848;28;20039;-69
2022/06/29 08:08:08;;;;;;;2.40;1.58;;;25.00;99.90;;;;;;5114999;28;20046;-70
2022/06/29 08:10:34;;;;;;;2.00;1.08;;;25.20;98.50;;;;;;5097544;28;20035;-69
2022/06/29 08:13:00;;;;;;;2.70;1.27;;;25.30;97.90;;;;;;5097493;28;20540;-71
2022/06/29 08:15:27;;;;;;;3.33;1.50;;;25.50;98.60;;;;;;5115988;28;20043;-70
2022/06/29 08:17:53;;;;;;;3.65;1.45;;;25.70;98.70;;;;;;5115825;28;20471;-70
2022/06/29 08:20:20;;;;;;;2.05;1.30;;;25.80;96.80;;;;;;5096421;28;20051;-70
2022/06/29 08:22:46;;;;;;;4.07;1.20;;;25.90;95.70;;;;;;5114369;28;20135;-75
2022/06/29 08:25:13;;;;;;;2.63;1.05;;;26.00;94.80;;;;;;5080267;28;20039;-73
2022/06/29 08:27:40;;;;;;;2.00;1.35;;;26.10;95.80;;;;;;5097667;28;20039;-69
2022/06/29 08:30:08;;;;;;;1.95;1.50;;;26.30;95.80;;;;;;5096906;28;20040;-69
2022/06/29 08:32:34;;;;;;;1.92;1.20;;;26.40;95.60;;;;;;5097412;28;20043;-73
2022/06/29 08:35:01;;;;;;;3.03;1.55;;;26.50;94.40;;;;;;5095153;28;20387;-70
2022/06/29 08:37:30;;;;;;;4.35;1.48;;;26.60;93.40;;;;;;5097461;28;20422;-69
2022/06/29 08:39:56;;;;;;;4.40;1.23;;;26.70;93.80;;;;;;5097072;28;20044;-71
2022/06/29 08:42:23;;;;;;;4.18;2.00;;;26.80;91.10;;;;;;5115537;28;20127;-72
2022/06/29 08:44:50;;;;;;;3.17;1.70;;;26.80;90.70;;;;;;5115372;28;20372;-70
2022/06/29 08:47:15;;;;;;;4.80;1.75;;;26.90;91.60;;;;;;5115121;28;20110;-70
2022/06/29 08:49:44;;;;;;;3.28;1.75;;;27.20;90.50;;;;;;5096413;28;20122;-75
2022/06/29 08:52:11;;;;;;;3.65;1.38;;;27.30;91.20;;;;;;5096551;28;20044;-71
2022/06/29 08:54:41;;;;;;;2.78;1.45;;;27.20;90.90;;;;;;5114967;28;20098;-71
2022/06/29 08:57:07;;;;;;;2.35;1.40;;;26.90;90.50;;;;;;5103037;28;20024;-71
2022/06/29 08:59:36;;;;;;;5.55;1.50;;;26.60;90.20;;;;;;5114136;28;20096;-71
2022/06/29 09:02:03;;;;;;;;;;;26.40;90.80;;;;;;5096408;28;20039;-68
2022/06/29 09:04:29;;;;;;;3.40;1.50;;;26.30;90.90;;;;;;5094749;28;19919;-72
2022/06/29 09:06:56;;;;;;;2.20;1.20;;;26.30;91.50;;;;;;5114908;28;20383;-74
2022/06/29 09:09:24;;;;;;;2.25;1.45;;;26.50;92.60;;;;;;5096502;28;20043;-69
2022/06/29 09:11:53;;;;;;;2.65;1.30;;;26.80;91.90;;;;;;5096382;28;20069;-70
2022/06/29 09:14:24;;;;;;;4.28;1.33;;;26.90;91.00;;;;;;5096447;28;20036;-71
2022/06/29 09:16:56;;;;;;;1.85;1.35;;;27.10;90.80;;;;;;5078877;28;20088;-70
2022/06/29 09:19:28;;;;;;;4.18;1.52;;;27.20;90.00;;;;;;5094460;28;20072;-69
2022/06/29 09:21:56;;;;;;;2.80;1.42;;;27.20;89.30;;;;;;5096173;28;20122;-69
2022/06/29 09:24:28;;;;;;;4.33;1.20;;;27.40;89.20;;;;;;5079274;28;20040;-71
2022/06/29 09:26:58;;;;;;;3.17;1.45;;;27.50;90.00;;;;;;5114288;28;20039;-71
2022/06/29 09:29:32;;;;;;;4.40;1.60;;;27.80;89.00;;;;;;5095312;28;20765;-69
2022/06/29 09:32:01;;;;;;;2.75;1.42;;;27.90;88.40;;;;;;5090187;28;20039;-70
2022/06/29 09:34:50;;;;;;;1.88;1.27;;;28.10;86.40;;;;;;5111222;28;20118;-75
2022/06/29 09:37:16;;;;;;;3.10;1.57;;;28.10;86.10;;;;;;5095015;28;20036;-72
2022/06/29 09:39:51;;;;;;;3.97;1.25;;;28.10;85.50;;;;;;5095033;28;20368;-70
2022/06/29 09:42:22;;;;;;;3.60;1.48;;;28.20;85.50;;;;;;5095657;28;20104;-70
2022/06/29 09:44:49;;;;;;;3.00;1.65;;;28.40;86.30;;;;;;5092435;28;20039;-70
2022/06/29 09:47:19;;;;;;;3.97;1.70;;;28.50;85.90;;;;;;5112458;28;20043;-70
2022/06/29 09:50:00;;;;;;;4.63;1.83;;;28.70;86.20;;;;;;5061009;28;20091;-72
2022/06/29 09:52:26;;;;;;;3.00;1.40;;;28.80;82.10;;;;;;5093403;28;20048;-70
2022/06/29 09:54:58;;;;;;;2.45;1.60;;;28.90;80.30;;;;;;5075206;28;20044;-72
2022/06/29 09:57:27;;;;;;;3.38;1.85;;;28.70;78.00;;;;;;5075429;28;20116;-72
2022/06/29 10:02:45;;;;;;;3.95;1.65;;;28.00;78.20;;;;;;5093248;28;20044;-72
2022/06/29 10:05:22;;;;;;;3.15;1.58;;;28.00;80.00;;;;;;5071162;28;20048;-69
2022/06/29 10:07:53;;;;;;;3.05;1.35;;;28.20;81.10;;;;;;5074708;28;20052;-71
2022/06/29 10:10:21;;;;;;;2.38;1.35;;;28.40;80.20;;;;;;5092602;28;20051;-75
2022/06/29 10:16:18;;;;;;;4.03;1.67;;;28.80;77.60;;;;;;5092901;28;20040;-71
2022/06/29 10:19:22;;;;;;;3.72;1.05;;;29.00;75.40;;;;;;5074575;28;20128;-69
2022/06/29 10:21:49;;;;;;;4.40;1.52;;;29.00;75.30;;;;;;5092214;28;20043;-68
2022/06/29 10:24:17;;;;;;;4.30;1.40;;;28.80;75.10;;;;;;5068290;28;20051;-71
2022/06/29 10:26:47;;;;;;;3.00;1.50;;;28.80;73.70;;;;;;5073662;28;20122;-70
2022/06/29 10:29:19;;;;;;;3.35;1.35;;;28.80;74.50;;;;;;5071105;28;20063;-69
2022/06/29 10:32:04;;;;;;;1.70;1.15;;;28.80;71.80;;;;;;5073908;28;20040;-68
2022/06/29 10:34:33;;;;;;;3.17;1.38;;;28.70;72.10;;;;;;5070974;28;20474;-70
2022/06/29 10:37:15;;;;;;;2.95;1.30;;;28.50;69.50;;;;;;5073216;28;20081;-69
2022/06/29 10:39:50;;;;;;;2.95;1.55;;;28.30;69.00;;;;;;5073820;28;20126;-70
2022/06/29 10:45:21;;;;;;;1.60;1.17;;;28.60;69.00;;;;;;5073934;28;20047;-70
2022/06/29 10:47:56;;;;;;;4.85;1.58;;;28.60;67.60;;;;;;5075008;28;20040;-69
2022/06/29 10:50:28;;;;;;;2.65;1.30;;;28.30;67.70;;;;;;5093410;28;20572;-70
2022/06/29 10:53:05;;;;;;;2.75;1.30;;;28.20;69.10;;;;;;5112550;28;20035;-70
2022/06/29 10:55:36;;;;;;;2.17;1.25;;;28.30;69.60;;;;;;5112072;28;20039;-72
2022/06/29 10:58:07;;;;;;;2.97;1.30;;;28.40;69.20;;;;;;5088511;28;20032;-69
2022/06/29 11:00:39;;;;;;;2.60;1.40;;;28.50;69.60;;;;;;5093829;28;20507;-67
2022/06/29 11:03:16;;;;;;;3.97;1.48;;;28.80;68.90;;;;;;5112020;28;20039;-67
2022/06/29 11:16:56;;;;;;;2.10;1.20;;;28.60;67.50;;;;;;5066661;28;20036;-73
2022/06/29 11:19:32;;;;;;;3.13;1.40;;;28.70;70.40;;;;;;5094979;28;20045;-71
2022/06/29 11:22:17;;;;;;;3.95;1.50;;;29.00;68.90;;;;;;5112699;28;20036;-71
2022/06/29 11:24:55;;;;;;;3.35;1.40;;;29.10;67.70;;;;;;5090271;28;20093;-69
2022/06/29 11:27:36;;;;;;;3.72;1.27;;;29.20;66.30;;;;;;5098422;28;20043;-70
2022/06/29 11:30:15;;;;;;;3.70;1.42;;;29.30;66.40;;;;;;5115801;28;20059;-71
2022/06/29 11:32:44;;;;;;;3.38;1.13;;;29.30;65.60;;;;;;5116563;28;20348;-69
2022/06/29 11:35:13;;;;;;;3.67;1.23;;;29.40;64.20;;;;;;5094932;28;20040;-69
2022/06/29 11:38:02;;;;;;;2.97;1.17;;;29.40;64.00;;;;;;5097215;28;20046;-72
2022/06/29 11:40:35;;;;;;;3.00;1.20;;;29.40;61.90;;;;;;5115471;28;20050;-70
2022/06/29 11:43:06;;;;;;;4.47;1.27;;;29.30;61.70;;;;;;5080140;28;20042;-72
2022/06/29 11:45:47;;;;;;;3.67;1.42;;;29.40;63.00;;;;;;5097191;28;20044;-68
2022/06/29 11:48:24;;;;;;;2.80;1.20;;;29.50;64.60;;;;;;5096973;28;20051;-69
2022/06/29 11:51:01;;;;;;;1.50;0.82;;;29.60;61.20;;;;;;5115306;28;20114;-69
2022/06/29 11:53:48;;;;;;;3.40;0.95;;;29.50;59.00;;;;;;5097103;28;20107;-70
2022/06/29 11:56:19;;;;;;;2.67;1.10;;;29.30;58.40;;;;;;5097127;28;20050;-71
2022/06/29 11:58:50;;;;;;;;;;;29.30;59.20;;;;;;5098402;28;20135;-73
2022/06/29 12:01:18;;;;;;;4.65;1.20;;;29.30;61.60;;;;;;5115865;28;19916;-69
2022/06/29 12:04:00;;;;;;;2.50;1.10;;;29.30;62.20;;;;;;5113433;28;20097;-70
2022/06/29 12:06:29;;;;;;;3.65;1.25;;;29.40;61.40;;;;;;5115683;28;20486;-72
2022/06/29 12:08:56;;;;;;;4.97;1.20;;;29.40;59.40;;;;;;5097227;28;20047;-72
2022/06/29 12:11:24;;;;;;;2.25;1.00;;;29.20;62.40;;;;;;5114939;28;20038;-67
2022/06/29 12:13:51;;;;;;;1.50;0.90;;;29.30;59.70;;;;;;5113963;28;20040;-70
2022/06/29 12:16:17;;;;;;;2.40;1.20;;;29.20;57.80;;;;;;5113724;28;20039;-69
2022/06/29 12:18:43;;;;;;;2.97;1.33;;;29.20;59.20;;;;;;5113483;28;20040;-70
2022/06/29 12:21:09;;;;;;;3.03;0.93;;;29.20;60.60;;;;;;5114433;28;20040;-69
2022/06/29 12:23:36;;;;;;;2.25;1.00;;;29.10;58.90;;;;;;5113574;28;20403;-69
2022/06/29 12:26:02;;;;;;;3.67;1.38;;;29.10;58.40;;;;;;5114552;28;20050;-70
2022/06/29 12:28:28;;;;;;;3.47;0.95;;;29.10;59.80;;;;;;5114431;28;20047;-68
2022/06/29 12:30:54;;;;;;;2.65;1.10;;;29.20;61.10;;;;;;5114523;28;20032;-68
2022/06/29 12:33:21;;;;;;;2.55;1.35;;;29.20;59.70;;;;;;5113340;28;20042;-69
2022/06/29 12:35:47;;;;;;;2.35;1.50;;;29.30;61.00;;;;;;5110686;28;20028;-70
2022/06/29 12:38:13;;;;;;;2.95;1.50;;;29.20;59.60;;;;;;5114316;28;20476;-69
2022/06/29 12:40:39;;;;;;;3.15;1.70;;;29.20;58.10;;;;;;5113305;28;20035;-67
2022/06/29 12:43:06;;;;;;;2.75;1.55;;;29.10;60.20;;;;;;5113255;28;20043;-67
2022/06/29 12:45:32;;;;;;;5.45;1.60;;;29.00;61.60;;;;;;5113674;28;20039;-66
2022/06/29 12:47:58;;;;;;;5.15;1.88;;;28.90;62.50;;;;;;5117436;27;20479;-66
2022/06/29 12:50:24;;;;;;;2.92;1.70;;;28.90;61.70;;;;;;5117230;27;20050;-67
2022/06/29 12:52:51;;;;;;;4.55;2.05;;;28.60;59.70;;;;;;5117559;27;20107;-69
2022/06/29 12:55:21;;;;;;;3.38;1.90;;;28.30;60.90;;;;;;5117126;27;20371;-66
2022/06/29 12:57:47;;;;;;;2.67;2.15;;;28.00;62.40;;;;;;5117167;27;20039;-69
2022/06/29 13:00:14;;;;;;;3.42;2.17;;;28.00;63.00;;;;;;5117001;27;20663;-69
2022/06/29 13:02:41;;;;;;;3.55;2.10;;;28.00;62.60;;;;;;5116320;27;20050;-67
2022/06/29 13:05:10;;;;;;;5.97;2.03;;;28.10;63.50;;;;;;5133242;27;20032;-70
2022/06/29 13:07:37;;;;;;;3.85;1.90;;;28.10;61.70;;;;;;5120799;27;20097;-66
2022/06/29 13:10:06;;;;;;;5.10;1.85;;;28.10;61.30;;;;;;5114612;28;20101;-73
2022/06/29 13:12:32;;;;;;;2.42;1.58;;;28.00;63.00;;;;;;5079560;28;20493;-70
2022/06/29 13:14:58;;;;;;;2.92;1.80;;;28.10;64.20;;;;;;5114582;28;20031;-67
2022/06/29 13:17:24;;;;;;;3.60;2.10;;;28.20;65.20;;;;;;5096324;28;20036;-65
2022/06/29 13:19:50;;;;;;;3.42;2.13;;;28.20;62.10;;;;;;5096463;28;20130;-68
2022/06/29 13:22:16;;;;;;;5.43;1.73;;;28.30;61.90;;;;;;5096478;28;20047;-65